sensor_id;sensor_type;location;lat;lon;timestamp;pressure;altitude;pressure_sealevel;temperature;humidity
62164;BME280;48149;51.132;7.178;2022-10-30T00:02:23;98913.16;;;22.18;68.90
62164;BME280;48149;51.132;7.178;2022-10-30T00:04:48;98920.72;;;22.35;66.35
62164;BME280;48149;51.132;7.178;2022-10-30T00:07:14;98920.97;;;22.39;65.62
62164;BME280;48149;51.132;7.178;2022-10-30T00:09:39;98910.06;;;22.06;68.52
62164;BME280;48149;51.132;7.178;2022-10-30T00:12:04;98918.44;;;22.23;67.14
62164;BME280;48149;51.132;7.178;2022-10-30T00:14:29;98908.50;;;22.00;68.71
62164;BME280;48149;51.132;7.178;2022-10-30T00:16:55;98910.91;;;22.54;64.69
62164;BME280;48149;51.132;7.178;2022-10-30T00:19:21;98915.31;;;22.16;68.01
62164;BME280;48149;51.132;7.178;2022-10-30T00:21:46;98920.41;;;22.42;66.71
62164;BME280;48149;51.132;7.178;2022-10-30T00:24:14;98918.28;;;22.39;66.75
62164;BME280;48149;51.132;7.178;2022-10-30T00:26:40;98910.19;;;22.25;68.30
62164;BME280;48149;51.132;7.178;2022-10-30T00:29:05;98908.06;;;21.88;69.43
62164;BME280;48149;51.132;7.178;2022-10-30T00:31:30;98910.06;;;22.06;68.23
62164;BME280;48149;51.132;7.178;2022-10-30T00:33:56;98918.59;;;22.37;67.17
62164;BME280;48149;51.132;7.178;2022-10-30T00:36:21;98916.50;;;22.00;68.15
62164;BME280;48149;51.132;7.178;2022-10-30T00:38:48;98903.56;;;22.17;67.76
62164;BME280;48149;51.132;7.178;2022-10-30T00:41:14;98912.03;;;22.77;64.87
62164;BME280;48149;51.132;7.178;2022-10-30T00:43:41;98900.75;;;22.04;68.42
62164;BME280;48149;51.132;7.178;2022-10-30T00:46:11;98904.72;;;22.06;68.29
62164;BME280;48149;51.132;7.178;2022-10-30T00:48:37;98895.38;;;22.38;66.96
62164;BME280;48149;51.132;7.178;2022-10-30T00:51:03;98901.56;;;21.65;70.01
62164;BME280;48149;51.132;7.178;2022-10-30T00:53:34;98907.97;;;22.03;67.89
62164;BME280;48149;51.132;7.178;2022-10-30T00:56:01;98899.25;;;21.88;69.39
62164;BME280;48149;51.132;7.178;2022-10-30T00:58:37;98904.69;;;22.11;67.83
62164;BME280;48149;51.132;7.178;2022-10-30T01:01:05;98891.13;;;21.74;69.38
62164;BME280;48149;51.132;7.178;2022-10-30T01:03:31;98897.44;;;22.17;67.65
62164;BME280;48149;51.132;7.178;2022-10-30T01:05:59;98900.41;;;22.15;67.90
62164;BME280;48149;51.132;7.178;2022-10-30T01:08:25;98900.31;;;21.97;68.65
62164;BME280;48149;51.132;7.178;2022-10-30T01:10:52;98893.16;;;22.21;67.68
62164;BME280;48149;51.132;7.178;2022-10-30T01:13:18;98894.03;;;22.11;67.35
62164;BME280;48149;51.132;7.178;2022-10-30T01:15:52;98888.41;;;22.13;67.52
62164;BME280;48149;51.132;7.178;2022-10-30T01:24:27;98890.50;;;22.16;67.36
62164;BME280;48149;51.132;7.178;2022-10-30T01:34:41;98907.88;;;22.13;67.55
62164;BME280;48149;51.132;7.178;2022-10-30T01:37:23;98904.63;;;22.16;67.87
62164;BME280;48149;51.132;7.178;2022-10-30T01:39:51;98910.84;;;22.12;66.76
62164;BME280;48149;51.132;7.178;2022-10-30T01:45:01;98900.78;;;21.65;69.68
62164;BME280;48149;51.132;7.178;2022-10-30T01:50:08;98895.75;;;21.97;69.61
62164;BME280;48149;51.132;7.178;2022-10-30T01:52:45;98903.81;;;21.87;69.54
62164;BME280;48149;51.132;7.178;2022-10-30T02:00:06;98904.97;;;21.37;72.60
62164;BME280;48149;51.132;7.178;2022-10-30T02:02:32;98898.00;;;21.80;69.48
62164;BME280;48149;51.132;7.178;2022-10-30T02:04:58;98909.13;;;21.53;71.12
62164;BME280;48149;51.132;7.178;2022-10-30T02:07:23;98899.19;;;21.64;69.89
62164;BME280;48149;51.132;7.178;2022-10-30T02:09:50;98907.59;;;21.42;73.25
62164;BME280;48149;51.132;7.178;2022-10-30T02:12:21;98901.75;;;21.79;71.00
62164;BME280;48149;51.132;7.178;2022-10-30T02:14:48;98905.22;;;21.41;73.50
62164;BME280;48149;51.132;7.178;2022-10-30T02:17:14;98903.03;;;21.48;73.29
62164;BME280;48149;51.132;7.178;2022-10-30T02:19:40;98905.53;;;21.73;70.48
62164;BME280;48149;51.132;7.178;2022-10-30T02:22:05;98905.56;;;21.29;71.10
62164;BME280;48149;51.132;7.178;2022-10-30T02:24:31;98901.94;;;21.05;74.99
62164;BME280;48149;51.132;7.178;2022-10-30T02:26:58;98903.25;;;21.12;75.54
62164;BME280;48149;51.132;7.178;2022-10-30T02:29:23;98896.75;;;21.28;75.01
62164;BME280;48149;51.132;7.178;2022-10-30T02:31:49;98896.06;;;21.13;75.33
62164;BME280;48149;51.132;7.178;2022-10-30T02:34:14;98900.31;;;21.58;74.07
62164;BME280;48149;51.132;7.178;2022-10-30T02:36:40;98887.59;;;21.45;73.58
62164;BME280;48149;51.132;7.178;2022-10-30T02:39:05;98884.00;;;21.25;73.77
62164;BME280;48149;51.132;7.178;2022-10-30T02:41:31;98873.03;;;20.83;76.67
62164;BME280;48149;51.132;7.178;2022-10-30T02:43:56;98876.81;;;20.62;79.08
62164;BME280;48149;51.132;7.178;2022-10-30T02:46:21;98871.44;;;20.82;75.54
62164;BME280;48149;51.132;7.178;2022-10-30T02:48:46;98865.00;;;20.88;76.03
62164;BME280;48149;51.132;7.178;2022-10-30T02:51:12;98874.38;;;20.75;76.62
62164;BME280;48149;51.132;7.178;2022-10-30T02:53:39;98872.59;;;21.20;75.12
62164;BME280;48149;51.132;7.178;2022-10-30T02:56:05;98881.38;;;20.56;78.95
62164;BME280;48149;51.132;7.178;2022-10-30T02:58:30;98887.97;;;20.69;78.37
62164;BME280;48149;51.132;7.178;2022-10-30T03:00:56;98877.94;;;20.46;79.10
62164;BME280;48149;51.132;7.178;2022-10-30T03:03:22;98881.16;;;20.38;80.15
62164;BME280;48149;51.132;7.178;2022-10-30T03:05:48;98882.06;;;20.82;78.21
62164;BME280;48149;51.132;7.178;2022-10-30T03:08:14;98890.25;;;19.81;82.82
62164;BME280;48149;51.132;7.178;2022-10-30T03:10:39;98895.94;;;20.69;79.01
62164;BME280;48149;51.132;7.178;2022-10-30T03:13:04;98887.81;;;20.35;82.55
62164;BME280;48149;51.132;7.178;2022-10-30T03:15:29;98893.16;;;19.85;82.95
62164;BME280;48149;51.132;7.178;2022-10-30T03:17:54;98896.06;;;20.29;82.09
62164;BME280;48149;51.132;7.178;2022-10-30T03:20:21;98900.03;;;20.36;82.27
62164;BME280;48149;51.132;7.178;2022-10-30T03:22:46;98897.13;;;19.47;86.16
62164;BME280;48149;51.132;7.178;2022-10-30T03:25:11;98898.22;;;19.91;85.37
62164;BME280;48149;51.132;7.178;2022-10-30T03:27:37;98890.25;;;19.66;86.85
62164;BME280;48149;51.132;7.178;2022-10-30T03:30:02;98889.19;;;19.82;84.43
62164;BME280;48149;51.132;7.178;2022-10-30T03:32:28;98878.00;;;20.05;84.61
62164;BME280;48149;51.132;7.178;2022-10-30T03:34:53;98877.47;;;19.48;87.29
62164;BME280;48149;51.132;7.178;2022-10-30T03:37:18;98883.88;;;19.72;86.29
62164;BME280;48149;51.132;7.178;2022-10-30T03:39:44;98885.19;;;19.80;85.46
62164;BME280;48149;51.132;7.178;2022-10-30T03:42:09;98881.72;;;19.89;84.11
62164;BME280;48149;51.132;7.178;2022-10-30T03:44:34;98889.16;;;20.02;84.30
62164;BME280;48149;51.132;7.178;2022-10-30T03:46:59;98890.72;;;20.44;81.02
62164;BME280;48149;51.132;7.178;2022-10-30T03:49:24;98892.34;;;19.89;84.34
62164;BME280;48149;51.132;7.178;2022-10-30T03:51:50;98889.16;;;19.47;86.57
62164;BME280;48149;51.132;7.178;2022-10-30T03:54:15;98900.34;;;19.69;86.12
62164;BME280;48149;51.132;7.178;2022-10-30T03:56:40;98895.56;;;19.66;87.24
62164;BME280;48149;51.132;7.178;2022-10-30T03:59:05;98903.50;;;19.71;86.29
62164;BME280;48149;51.132;7.178;2022-10-30T04:01:31;98894.75;;;19.81;85.26
62164;BME280;48149;51.132;7.178;2022-10-30T04:03:56;98895.78;;;18.62;94.66
62164;BME280;48149;51.132;7.178;2022-10-30T04:06:21;98892.53;;;18.55;95.99
62164;BME280;48149;51.132;7.178;2022-10-30T04:08:46;98900.53;;;18.23;98.52
62164;BME280;48149;51.132;7.178;2022-10-30T04:11:12;98897.25;;;18.48;96.05
62164;BME280;48149;51.132;7.178;2022-10-30T04:13:39;98902.56;;;19.10;89.66
62164;BME280;48149;51.132;7.178;2022-10-30T04:16:05;98899.69;;;18.54;96.47
62164;BME280;48149;51.132;7.178;2022-10-30T04:18:30;98907.53;;;18.81;93.58
62164;BME280;48149;51.132;7.178;2022-10-30T04:20:57;98909.75;;;19.14;88.18
62164;BME280;48149;51.132;7.178;2022-10-30T04:23:23;98918.31;;;18.70;94.39
62164;BME280;48149;51.132;7.178;2022-10-30T04:25:48;98922.66;;;18.81;93.48
62164;BME280;48149;51.132;7.178;2022-10-30T04:28:13;98914.09;;;18.69;94.09
62164;BME280;48149;51.132;7.178;2022-10-30T04:30:40;98914.84;;;18.59;94.88
62164;BME280;48149;51.132;7.178;2022-10-30T04:33:06;98919.63;;;18.62;93.44
62164;BME280;48149;51.132;7.178;2022-10-30T04:35:34;98908.44;;;18.50;94.39
62164;BME280;48149;51.132;7.178;2022-10-30T04:38:04;98908.84;;;18.84;93.08
62164;BME280;48149;51.132;7.178;2022-10-30T04:40:31;98911.63;;;18.52;94.71
62164;BME280;48149;51.132;7.178;2022-10-30T04:42:57;98917.91;;;18.98;92.29
62164;BME280;48149;51.132;7.178;2022-10-30T04:45:22;98916.13;;;19.08;91.55
62164;BME280;48149;51.132;7.178;2022-10-30T04:47:48;98918.25;;;18.49;95.08
62164;BME280;48149;51.132;7.178;2022-10-30T04:50:14;98918.09;;;18.34;97.37
62164;BME280;48149;51.132;7.178;2022-10-30T04:52:39;98910.31;;;18.18;98.23
62164;BME280;48149;51.132;7.178;2022-10-30T04:55:05;98909.97;;;18.46;96.60
62164;BME280;48149;51.132;7.178;2022-10-30T04:57:30;98906.13;;;18.27;97.65
62164;BME280;48149;51.132;7.178;2022-10-30T04:59:56;98910.91;;;18.25;96.89
62164;BME280;48149;51.132;7.178;2022-10-30T05:02:21;98908.72;;;18.17;98.54
62164;BME280;48149;51.132;7.178;2022-10-30T05:04:46;98903.97;;;18.55;95.00
62164;BME280;48149;51.132;7.178;2022-10-30T05:07:12;98902.19;;;18.29;95.96
62164;BME280;48149;51.132;7.178;2022-10-30T05:09:37;98899.22;;;18.26;96.44
62164;BME280;48149;51.132;7.178;2022-10-30T05:12:03;98907.03;;;18.42;96.39
62164;BME280;48149;51.132;7.178;2022-10-30T05:14:29;98902.47;;;18.85;93.24
62164;BME280;48149;51.132;7.178;2022-10-30T05:16:54;98903.03;;;18.40;96.02
62164;BME280;48149;51.132;7.178;2022-10-30T05:19:19;98902.31;;;18.12;99.49
62164;BME280;48149;51.132;7.178;2022-10-30T05:21:45;98905.50;;;18.51;95.83
62164;BME280;48149;51.132;7.178;2022-10-30T05:24:10;98907.94;;;18.53;96.74
62164;BME280;48149;51.132;7.178;2022-10-30T05:26:41;98901.16;;;18.35;97.55
62164;BME280;48149;51.132;7.178;2022-10-30T05:29:08;98895.38;;;18.06;100.00
62164;BME280;48149;51.132;7.178;2022-10-30T05:31:33;98884.94;;;18.27;99.33
62164;BME280;48149;51.132;7.178;2022-10-30T05:33:58;98887.75;;;18.52;96.38
62164;BME280;48149;51.132;7.178;2022-10-30T05:36:24;98885.69;;;18.59;95.71
62164;BME280;48149;51.132;7.178;2022-10-30T05:38:49;98877.59;;;18.91;94.60
62164;BME280;48149;51.132;7.178;2022-10-30T05:41:14;98882.59;;;18.82;93.85
62164;BME280;48149;51.132;7.178;2022-10-30T05:43:39;98879.25;;;19.12;92.93
62164;BME280;48149;51.132;7.178;2022-10-30T05:46:05;98875.56;;;18.51;96.19
62164;BME280;48149;51.132;7.178;2022-10-30T05:48:30;98877.78;;;18.79;94.90
62164;BME280;48149;51.132;7.178;2022-10-30T05:50:55;98876.28;;;18.93;93.61
62164;BME280;48149;51.132;7.178;2022-10-30T05:53:21;98875.72;;;18.86;93.08
62164;BME280;48149;51.132;7.178;2022-10-30T05:55:46;98874.56;;;18.62;95.31
62164;BME280;48149;51.132;7.178;2022-10-30T05:58:11;98867.75;;;18.86;93.79
62164;BME280;48149;51.132;7.178;2022-10-30T06:00:36;98873.25;;;18.70;95.43
62164;BME280;48149;51.132;7.178;2022-10-30T06:03:05;98865.84;;;18.72;95.36
62164;BME280;48149;51.132;7.178;2022-10-30T06:05:32;98861.84;;;18.69;94.54
62164;BME280;48149;51.132;7.178;2022-10-30T06:07:57;98855.72;;;18.63;95.47
62164;BME280;48149;51.132;7.178;2022-10-30T06:10:23;98859.44;;;18.62;95.31
62164;BME280;48149;51.132;7.178;2022-10-30T06:12:56;98861.69;;;18.96;93.58
62164;BME280;48149;51.132;7.178;2022-10-30T06:15:22;98862.00;;;19.25;90.44
62164;BME280;48149;51.132;7.178;2022-10-30T06:17:49;98870.00;;;18.57;95.17
62164;BME280;48149;51.132;7.178;2022-10-30T06:20:14;98865.56;;;18.73;94.17
62164;BME280;48149;51.132;7.178;2022-10-30T06:22:40;98862.34;;;18.66;95.11
62164;BME280;48149;51.132;7.178;2022-10-30T06:25:07;98865.31;;;18.75;94.19
62164;BME280;48149;51.132;7.178;2022-10-30T06:27:33;98859.78;;;18.86;92.44
62164;BME280;48149;51.132;7.178;2022-10-30T06:29:58;98865.63;;;18.83;93.05
62164;BME280;48149;51.132;7.178;2022-10-30T06:32:23;98859.84;;;19.16;92.69
62164;BME280;48149;51.132;7.178;2022-10-30T06:34:48;98861.22;;;19.19;91.53
62164;BME280;48149;51.132;7.178;2022-10-30T06:37:15;98860.22;;;18.63;94.95
62164;BME280;48149;51.132;7.178;2022-10-30T06:39:40;98860.34;;;18.98;91.47
62164;BME280;48149;51.132;7.178;2022-10-30T06:42:05;98858.75;;;18.87;92.99
62164;BME280;48149;51.132;7.178;2022-10-30T06:44:30;98861.34;;;18.82;93.93
62164;BME280;48149;51.132;7.178;2022-10-30T06:46:56;98860.91;;;19.10;90.40
62164;BME280;48149;51.132;7.178;2022-10-30T06:49:21;98867.22;;;18.84;93.36
62164;BME280;48149;51.132;7.178;2022-10-30T06:51:46;98875.00;;;19.16;91.56
62164;BME280;48149;51.132;7.178;2022-10-30T06:54:12;98865.78;;;19.44;87.85
62164;BME280;48149;51.132;7.178;2022-10-30T06:56:38;98870.16;;;18.93;91.77
62164;BME280;48149;51.132;7.178;2022-10-30T06:59:03;98880.13;;;19.53;88.28
62164;BME280;48149;51.132;7.178;2022-10-30T07:01:28;98883.34;;;19.60;87.26
62164;BME280;48149;51.132;7.178;2022-10-30T07:03:53;98889.59;;;19.18;88.64
62164;BME280;48149;51.132;7.178;2022-10-30T07:06:19;98884.91;;;20.01;85.49
62164;BME280;48149;51.132;7.178;2022-10-30T07:08:45;98898.22;;;19.91;85.71
62164;BME280;48149;51.132;7.178;2022-10-30T07:11:10;98907.50;;;20.04;84.26
62164;BME280;48149;51.132;7.178;2022-10-30T07:13:35;98902.91;;;20.60;80.55
62164;BME280;48149;51.132;7.178;2022-10-30T07:16:02;98900.81;;;20.47;81.22
62164;BME280;48149;51.132;7.178;2022-10-30T07:18:27;98904.31;;;20.07;83.72
62164;BME280;48149;51.132;7.178;2022-10-30T07:20:53;98907.72;;;20.53;81.81
62164;BME280;48149;51.132;7.178;2022-10-30T07:23:18;98904.59;;;19.75;86.53
62164;BME280;48149;51.132;7.178;2022-10-30T07:25:44;98907.19;;;19.40;89.35
62164;BME280;48149;51.132;7.178;2022-10-30T07:28:09;98906.13;;;19.46;89.99
62164;BME280;48149;51.132;7.178;2022-10-30T07:30:34;98902.97;;;19.54;90.33
62164;BME280;48149;51.132;7.178;2022-10-30T07:33:00;98901.34;;;19.43;90.93
62164;BME280;48149;51.132;7.178;2022-10-30T07:35:26;98904.25;;;20.57;83.26
62164;BME280;48149;51.132;7.178;2022-10-30T07:37:53;98903.97;;;20.64;81.04
62164;BME280;48149;51.132;7.178;2022-10-30T07:40:20;98903.03;;;20.99;79.89
62164;BME280;48149;51.132;7.178;2022-10-30T07:42:45;98894.00;;;20.90;80.92
62164;BME280;48149;51.132;7.178;2022-10-30T07:45:10;98904.03;;;21.13;79.41
62164;BME280;48149;51.132;7.178;2022-10-30T07:47:40;98895.41;;;21.36;77.77
62164;BME280;48149;51.132;7.178;2022-10-30T07:50:05;98900.81;;;21.21;77.32
62164;BME280;48149;51.132;7.178;2022-10-30T07:52:32;98892.69;;;21.80;76.38
62164;BME280;48149;51.132;7.178;2022-10-30T07:54:57;98895.09;;;21.43;77.13
62164;BME280;48149;51.132;7.178;2022-10-30T07:57:22;98900.06;;;21.00;81.15
62164;BME280;48149;51.132;7.178;2022-10-30T07:59:49;98890.59;;;20.74;81.06
62164;BME280;48149;51.132;7.178;2022-10-30T08:02:14;98897.41;;;21.10;80.39
62164;BME280;48149;51.132;7.178;2022-10-30T08:04:39;98893.53;;;21.37;78.47
62164;BME280;48149;51.132;7.178;2022-10-30T08:07:04;98896.22;;;21.70;77.10
62164;BME280;48149;51.132;7.178;2022-10-30T08:09:29;98892.91;;;21.89;74.04
62164;BME280;48149;51.132;7.178;2022-10-30T08:11:55;98891.28;;;21.93;75.20
62164;BME280;48149;51.132;7.178;2022-10-30T08:14:20;98902.13;;;22.54;72.61
62164;BME280;48149;51.132;7.178;2022-10-30T08:16:47;98904.63;;;23.54;65.89
62164;BME280;48149;51.132;7.178;2022-10-30T08:19:12;98905.63;;;22.25;71.97
62164;BME280;48149;51.132;7.178;2022-10-30T08:21:38;98909.41;;;21.91;72.78
62164;BME280;48149;51.132;7.178;2022-10-30T08:24:03;98900.34;;;22.44;73.02
62164;BME280;48149;51.132;7.178;2022-10-30T08:26:28;98901.94;;;23.72;65.78
62164;BME280;48149;51.132;7.178;2022-10-30T08:28:55;98899.69;;;24.85;61.22
62164;BME280;48149;51.132;7.178;2022-10-30T08:31:21;98908.25;;;27.13;50.27
62164;BME280;48149;51.132;7.178;2022-10-30T08:33:46;98905.34;;;25.69;53.77
62164;BME280;48149;51.132;7.178;2022-10-30T08:36:11;98899.22;;;26.91;50.52
62164;BME280;48149;51.132;7.178;2022-10-30T08:38:36;98900.81;;;26.22;51.88
62164;BME280;48149;51.132;7.178;2022-10-30T08:41:02;98905.88;;;27.11;47.66
62164;BME280;48149;51.132;7.178;2022-10-30T08:43:27;98901.28;;;25.93;51.93
62164;BME280;48149;51.132;7.178;2022-10-30T08:45:52;98893.06;;;26.60;49.81
62164;BME280;48149;51.132;7.178;2022-10-30T08:48:17;98891.25;;;28.32;45.30
62164;BME280;48149;51.132;7.178;2022-10-30T08:50:43;98893.75;;;27.57;47.18
62164;BME280;48149;51.132;7.178;2022-10-30T08:53:12;98894.47;;;28.00;45.61
62164;BME280;48149;51.132;7.178;2022-10-30T08:55:38;98896.41;;;27.74;46.00
62164;BME280;48149;51.132;7.178;2022-10-30T08:58:03;98886.91;;;28.11;47.49
62164;BME280;48149;51.132;7.178;2022-10-30T09:00:29;98890.13;;;27.44;47.06
62164;BME280;48149;51.132;7.178;2022-10-30T09:02:54;98883.44;;;26.50;50.89
62164;BME280;48149;51.132;7.178;2022-10-30T09:05:20;98889.81;;;26.10;51.80
62164;BME280;48149;51.132;7.178;2022-10-30T09:07:46;98891.94;;;28.03;45.24
62164;BME280;48149;51.132;7.178;2022-10-30T09:10:12;98881.41;;;27.55;47.23
62164;BME280;48149;51.132;7.178;2022-10-30T09:12:41;98884.47;;;29.43;42.66
62164;BME280;48149;51.132;7.178;2022-10-30T09:15:07;98879.66;;;30.27;40.57
62164;BME280;48149;51.132;7.178;2022-10-30T09:17:32;98878.16;;;29.93;40.07
62164;BME280;48149;51.132;7.178;2022-10-30T09:19:57;98879.25;;;28.68;45.20
62164;BME280;48149;51.132;7.178;2022-10-30T09:22:23;98876.66;;;28.42;42.85
62164;BME280;48149;51.132;7.178;2022-10-30T09:24:48;98860.88;;;28.90;43.45
62164;BME280;48149;51.132;7.178;2022-10-30T09:27:13;98857.63;;;29.47;41.13
62164;BME280;48149;51.132;7.178;2022-10-30T09:29:40;98864.38;;;29.11;43.28
62164;BME280;48149;51.132;7.178;2022-10-30T09:32:06;98863.16;;;30.28;40.83
62164;BME280;48149;51.132;7.178;2022-10-30T09:34:34;98867.22;;;30.71;39.33
62164;BME280;48149;51.132;7.178;2022-10-30T09:37:01;98868.03;;;30.47;38.44
62164;BME280;48149;51.132;7.178;2022-10-30T09:39:32;98871.03;;;31.06;37.82
62164;BME280;48149;51.132;7.178;2022-10-30T09:52:18;98863.97;;;32.59;35.59
62164;BME280;48149;51.132;7.178;2022-10-30T09:54:51;98848.44;;;31.97;34.99
62164;BME280;48149;51.132;7.178;2022-10-30T09:57:42;98850.59;;;32.04;37.10
62164;BME280;48149;51.132;7.178;2022-10-30T10:00:08;98853.31;;;31.76;37.07
62164;BME280;48149;51.132;7.178;2022-10-30T10:02:35;98848.09;;;30.63;38.13
62164;BME280;48149;51.132;7.178;2022-10-30T10:05:15;98851.53;;;29.71;40.19
62164;BME280;48149;51.132;7.178;2022-10-30T10:07:53;98842.22;;;30.61;39.55
62164;BME280;48149;51.132;7.178;2022-10-30T10:12:57;98853.81;;;32.25;36.22
62164;BME280;48149;51.132;7.178;2022-10-30T10:17:54;98858.34;;;33.18;34.34
62164;BME280;48149;51.132;7.178;2022-10-30T10:20:27;98859.78;;;32.46;35.89
62164;BME280;48149;51.132;7.178;2022-10-30T10:22:54;98859.59;;;32.39;35.06
62164;BME280;48149;51.132;7.178;2022-10-30T10:25:20;98866.03;;;33.74;33.99
62164;BME280;48149;51.132;7.178;2022-10-30T10:30:39;98860.75;;;34.49;32.31
62164;BME280;48149;51.132;7.178;2022-10-30T10:33:19;98861.38;;;36.21;30.52
62164;BME280;48149;51.132;7.178;2022-10-30T10:36:10;98864.44;;;34.87;31.81
62164;BME280;48149;51.132;7.178;2022-10-30T10:38:48;98851.81;;;35.61;29.98
62164;BME280;48149;51.132;7.178;2022-10-30T10:44:09;98855.75;;;35.04;30.68
62164;BME280;48149;51.132;7.178;2022-10-30T10:49:24;98846.56;;;33.91;32.96
62164;BME280;48149;51.132;7.178;2022-10-30T10:51:59;98845.41;;;33.31;33.32
62164;BME280;48149;51.132;7.178;2022-10-30T10:54:27;98848.69;;;32.86;34.88
62164;BME280;48149;51.132;7.178;2022-10-30T10:56:56;98845.19;;;32.86;33.94
62164;BME280;48149;51.132;7.178;2022-10-30T11:01:50;98834.47;;;33.66;33.17
62164;BME280;48149;51.132;7.178;2022-10-30T11:07:07;98843.84;;;33.68;32.13
62164;BME280;48149;51.132;7.178;2022-10-30T11:09:37;98838.09;;;33.54;33.66
62164;BME280;48149;51.132;7.178;2022-10-30T11:12:03;98837.72;;;32.63;33.49
62164;BME280;48149;51.132;7.178;2022-10-30T11:14:28;98844.22;;;34.35;33.94
62164;BME280;48149;51.132;7.178;2022-10-30T11:17:14;98841.97;;;34.41;32.93
62164;BME280;48149;51.132;7.178;2022-10-30T11:19:43;98833.75;;;33.11;33.95
62164;BME280;48149;51.132;7.178;2022-10-30T11:22:18;98841.34;;;32.87;33.45
62164;BME280;48149;51.132;7.178;2022-10-30T11:24:45;98837.59;;;34.59;32.41
62164;BME280;48149;51.132;7.178;2022-10-30T11:29:52;98833.56;;;34.49;32.40
62164;BME280;48149;51.132;7.178;2022-10-30T11:32:19;98833.97;;;34.25;31.00
62164;BME280;48149;51.132;7.178;2022-10-30T11:35:29;98833.75;;;34.60;31.86
62164;BME280;48149;51.132;7.178;2022-10-30T11:37:37;98827.97;;;32.78;33.09
62164;BME280;48149;51.132;7.178;2022-10-30T11:42:29;98823.16;;;33.45;33.28
62164;BME280;48149;51.132;7.178;2022-10-30T11:44:56;98819.94;;;31.44;35.89
62164;BME280;48149;51.132;7.178;2022-10-30T11:47:26;98822.59;;;32.31;35.14
62164;BME280;48149;51.132;7.178;2022-10-30T11:49:56;98828.09;;;32.50;35.33
62164;BME280;48149;51.132;7.178;2022-10-30T11:52:24;98821.97;;;31.75;35.94
62164;BME280;48149;51.132;7.178;2022-10-30T11:57:55;98814.47;;;29.92;39.19
62164;BME280;48149;51.132;7.178;2022-10-30T12:00:26;98814.75;;;28.33;43.12
62164;BME280;48149;51.132;7.178;2022-10-30T12:02:53;98816.81;;;28.66;43.53
62164;BME280;48149;51.132;7.178;2022-10-30T12:10:32;98807.03;;;28.52;43.59
62164;BME280;48149;51.132;7.178;2022-10-30T12:13:03;98809.28;;;29.21;43.52
62164;BME280;48149;51.132;7.178;2022-10-30T12:15:35;98807.19;;;28.27;44.84
62164;BME280;48149;51.132;7.178;2022-10-30T12:18:02;98811.38;;;28.07;44.79
62164;BME280;48149;51.132;7.178;2022-10-30T12:20:29;98820.03;;;28.50;44.08
62164;BME280;48149;51.132;7.178;2022-10-30T12:22:54;98809.66;;;27.94;45.75
62164;BME280;48149;51.132;7.178;2022-10-30T12:25:31;98810.44;;;28.41;45.07
62164;BME280;48149;51.132;7.178;2022-10-30T12:27:59;98817.28;;;28.59;43.51
62164;BME280;48149;51.132;7.178;2022-10-30T12:30:29;98810.47;;;28.62;43.23
62164;BME280;48149;51.132;7.178;2022-10-30T12:32:58;98813.06;;;28.79;42.58
62164;BME280;48149;51.132;7.178;2022-10-30T12:40:53;98804.66;;;28.22;44.52
62164;BME280;48149;51.132;7.178;2022-10-30T12:43:27;98808.09;;;27.84;45.15
62164;BME280;48149;51.132;7.178;2022-10-30T12:46:03;98810.09;;;28.72;44.21
62164;BME280;48149;51.132;7.178;2022-10-30T12:48:37;98803.69;;;27.80;46.46
62164;BME280;48149;51.132;7.178;2022-10-30T12:53:41;98803.81;;;28.59;43.39
62164;BME280;48149;51.132;7.178;2022-10-30T12:56:18;98796.16;;;28.02;43.49
62164;BME280;48149;51.132;7.178;2022-10-30T13:01:18;98792.63;;;28.19;46.80
62164;BME280;48149;51.132;7.178;2022-10-30T13:04:26;98801.16;;;28.21;44.98
62164;BME280;48149;51.132;7.178;2022-10-30T13:06:45;98801.34;;;29.25;42.88
62164;BME280;48149;51.132;7.178;2022-10-30T13:09:20;98799.41;;;29.46;41.77
62164;BME280;48149;51.132;7.178;2022-10-30T13:11:50;98794.47;;;29.06;41.06
62164;BME280;48149;51.132;7.178;2022-10-30T13:14:18;98808.78;;;29.73;40.57
62164;BME280;48149;51.132;7.178;2022-10-30T13:16:44;98804.09;;;29.37;39.85
62164;BME280;48149;51.132;7.178;2022-10-30T13:19:11;98801.69;;;30.13;40.30
62164;BME280;48149;51.132;7.178;2022-10-30T13:32:40;98784.25;;;30.59;38.04
62164;BME280;48149;51.132;7.178;2022-10-30T13:37:15;98782.78;;;30.25;37.97
62164;BME280;48149;51.132;7.178;2022-10-30T13:52:31;98763.66;;;30.42;37.83
62164;BME280;48149;51.132;7.178;2022-10-30T13:55:41;98767.47;;;30.17;37.54
62164;BME280;48149;51.132;7.178;2022-10-30T14:15:43;98779.63;;;29.54;39.35
62164;BME280;48149;51.132;7.178;2022-10-30T14:20:47;98775.94;;;29.05;40.33
62164;BME280;48149;51.132;7.178;2022-10-30T14:23:20;98777.09;;;29.16;39.22
62164;BME280;48149;51.132;7.178;2022-10-30T14:28:31;98791.72;;;28.94;39.51
62164;BME280;48149;51.132;7.178;2022-10-30T14:31:03;98789.16;;;28.98;39.42
62164;BME280;48149;51.132;7.178;2022-10-30T14:33:49;98793.03;;;29.62;39.39
62164;BME280;48149;51.132;7.178;2022-10-30T14:36:24;98795.25;;;29.48;39.17
62164;BME280;48149;51.132;7.178;2022-10-30T14:38:59;98788.41;;;29.09;40.68
62164;BME280;48149;51.132;7.178;2022-10-30T14:41:40;98787.59;;;28.76;39.95
62164;BME280;48149;51.132;7.178;2022-10-30T14:44:12;98789.06;;;27.89;44.18
62164;BME280;48149;51.132;7.178;2022-10-30T14:46:48;98786.91;;;28.29;43.54
62164;BME280;48149;51.132;7.178;2022-10-30T14:51:59;98784.72;;;28.23;42.39
62164;BME280;48149;51.132;7.178;2022-10-30T14:54:39;98783.34;;;28.37;41.83
62164;BME280;48149;51.132;7.178;2022-10-30T14:57:21;98789.97;;;28.02;42.93
62164;BME280;48149;51.132;7.178;2022-10-30T14:59:48;98790.16;;;27.97;42.93
62164;BME280;48149;51.132;7.178;2022-10-30T15:02:40;98797.78;;;27.95;43.90
62164;BME280;48149;51.132;7.178;2022-10-30T15:05:20;98782.19;;;27.80;45.11
62164;BME280;48149;51.132;7.178;2022-10-30T15:10:38;98794.13;;;27.19;46.26
62164;BME280;48149;51.132;7.178;2022-10-30T15:15:42;98797.34;;;26.47;46.32
62164;BME280;48149;51.132;7.178;2022-10-30T15:18:17;98790.50;;;26.32;47.75